sensor_id;sensor_type;location;lat;lon;timestamp;temperature;humidity
40848;DHT22;26570;50.962;5.340;2023-11-19T02:20:49;14.20;99.90
40848;DHT22;26570;50.962;5.340;2023-11-19T05:17:05;13.20;99.90
40848;DHT22;26570;50.962;5.340;2023-11-19T05:20:22;13.30;99.90
40848;DHT22;26570;50.962;5.340;2023-11-19T05:45:12;12.90;99.90
40848;DHT22;26570;50.962;5.340;2023-11-19T05:51:39;12.90;99.90
40848;DHT22;26570;50.962;5.340;2023-11-19T05:58:03;12.80;99.90
40848;DHT22;26570;50.962;5.340;2023-11-19T06:31:25;12.50;99.90
40848;DHT22;26570;50.962;5.340;2023-11-19T06:34:34;12.30;99.90
40848;DHT22;26570;50.962;5.340;2023-11-19T06:37:41;12.40;99.90
40848;DHT22;26570;50.962;5.340;2023-11-19T06:40:34;12.50;99.90
40848;DHT22;26570;50.962;5.340;2023-11-19T06:43:23;12.40;99.90
40848;DHT22;26570;50.962;5.340;2023-11-19T06:46:19;12.40;99.90
40848;DHT22;26570;50.962;5.340;2023-11-19T06:49:09;12.30;99.90
40848;DHT22;26570;50.962;5.340;2023-11-19T06:51:58;12.50;99.90
40848;DHT22;26570;50.962;5.340;2023-11-19T06:55:18;12.60;99.90
40848;DHT22;26570;50.962;5.340;2023-11-19T06:58:05;12.50;99.90
40848;DHT22;26570;50.962;5.340;2023-11-19T07:00:52;12.30;99.90
40848;DHT22;26570;50.962;5.340;2023-11-19T07:03:39;12.50;99.90
40848;DHT22;26570;50.962;5.340;2023-11-19T07:06:28;12.30;99.90
40848;DHT22;26570;50.962;5.340;2023-11-19T07:09:15;12.30;99.90
40848;DHT22;26570;50.962;5.340;2023-11-19T07:12:01;12.40;99.90
40848;DHT22;26570;50.962;5.340;2023-11-19T07:14:50;12.30;99.90
40848;DHT22;26570;50.962;5.340;2023-11-19T07:17:38;12.30;99.90
40848;DHT22;26570;50.962;5.340;2023-11-19T07:20:25;12.30;99.90
40848;DHT22;26570;50.962;5.340;2023-11-19T07:23:13;12.30;99.90
40848;DHT22;26570;50.962;5.340;2023-11-19T07:26:04;12.30;99.90
40848;DHT22;26570;50.962;5.340;2023-11-19T07:28:50;12.40;99.90
40848;DHT22;26570;50.962;5.340;2023-11-19T07:31:37;12.20;99.90
40848;DHT22;26570;50.962;5.340;2023-11-19T07:34:24;12.30;99.90
40848;DHT22;26570;50.962;5.340;2023-11-19T07:37:09;12.20;99.90
40848;DHT22;26570;50.962;5.340;2023-11-19T07:39:54;12.30;99.90
40848;DHT22;26570;50.962;5.340;2023-11-19T07:42:39;12.40;99.90
40848;DHT22;26570;50.962;5.340;2023-11-19T07:45:24;12.40;99.90
40848;DHT22;26570;50.962;5.340;2023-11-19T07:48:09;12.40;99.90
40848;DHT22;26570;50.962;5.340;2023-11-19T07:50:55;12.40;99.90
40848;DHT22;26570;50.962;5.340;2023-11-19T07:53:41;12.40;99.90
40848;DHT22;26570;50.962;5.340;2023-11-19T07:56:26;12.50;99.90
40848;DHT22;26570;50.962;5.340;2023-11-19T07:59:11;12.40;99.90
40848;DHT22;26570;50.962;5.340;2023-11-19T08:01:56;12.40;99.90
40848;DHT22;26570;50.962;5.340;2023-11-19T08:04:42;12.40;99.90
40848;DHT22;26570;50.962;5.340;2023-11-19T08:07:30;12.50;99.90
40848;DHT22;26570;50.962;5.340;2023-11-19T08:10:15;12.50;99.90
40848;DHT22;26570;50.962;5.340;2023-11-19T08:13:00;12.50;99.90
40848;DHT22;26570;50.962;5.340;2023-11-19T08:15:45;12.50;99.90
40848;DHT22;26570;50.962;5.340;2023-11-19T08:18:31;12.60;99.90
40848;DHT22;26570;50.962;5.340;2023-11-19T08:21:16;12.80;99.90
40848;DHT22;26570;50.962;5.340;2023-11-19T08:24:01;12.70;99.90
40848;DHT22;26570;50.962;5.340;2023-11-19T08:26:49;12.80;99.90
40848;DHT22;26570;50.962;5.340;2023-11-19T08:29:34;12.80;99.90
40848;DHT22;26570;50.962;5.340;2023-11-19T08:32:19;12.90;99.90
40848;DHT22;26570;50.962;5.340;2023-11-19T08:35:05;13.10;99.90
40848;DHT22;26570;50.962;5.340;2023-11-19T08:37:50;13.10;99.90
40848;DHT22;26570;50.962;5.340;2023-11-19T08:40:36;13.20;99.90
40848;DHT22;26570;50.962;5.340;2023-11-19T08:43:24;13.20;99.90
40848;DHT22;26570;50.962;5.340;2023-11-19T08:46:13;13.40;99.90
40848;DHT22;26570;50.962;5.340;2023-11-19T08:49:02;13.40;99.90
40848;DHT22;26570;50.962;5.340;2023-11-19T08:51:50;13.30;99.90
40848;DHT22;26570;50.962;5.340;2023-11-19T08:54:36;13.10;99.90
40848;DHT22;26570;50.962;5.340;2023-11-19T08:57:22;13.20;99.90
40848;DHT22;26570;50.962;5.340;2023-11-19T09:00:09;13.30;99.90
40848;DHT22;26570;50.962;5.340;2023-11-19T09:02:58;13.20;99.90
40848;DHT22;26570;50.962;5.340;2023-11-19T09:05:45;13.30;99.90
40848;DHT22;26570;50.962;5.340;2023-11-19T09:08:32;13.50;99.90
40848;DHT22;26570;50.962;5.340;2023-11-19T09:11:20;13.50;99.90
40848;DHT22;26570;50.962;5.340;2023-11-19T09:14:06;13.50;99.90
40848;DHT22;26570;50.962;5.340;2023-11-19T09:16:53;13.40;99.90
40848;DHT22;26570;50.962;5.340;2023-11-19T09:19:40;13.70;99.90
40848;DHT22;26570;50.962;5.340;2023-11-19T09:22:26;13.70;99.90
40848;DHT22;26570;50.962;5.340;2023-11-19T09:25:13;13.70;99.90
40848;DHT22;26570;50.962;5.340;2023-11-19T09:28:02;13.80;99.90
40848;DHT22;26570;50.962;5.340;2023-11-19T09:30:49;13.80;99.90
40848;DHT22;26570;50.962;5.340;2023-11-19T09:33:35;13.90;99.90
40848;DHT22;26570;50.962;5.340;2023-11-19T09:36:22;13.80;99.90
40848;DHT22;26570;50.962;5.340;2023-11-19T09:39:34;13.80;99.90
40848;DHT22;26570;50.962;5.340;2023-11-19T09:42:45;13.60;99.90
40848;DHT22;26570;50.962;5.340;2023-11-19T09:45:36;13.80;99.90
40848;DHT22;26570;50.962;5.340;2023-11-19T09:48:26;13.70;99.90
40848;DHT22;26570;50.962;5.340;2023-11-19T09:51:16;13.70;99.90
40848;DHT22;26570;50.962;5.340;2023-11-19T09:54:03;13.70;99.90
40848;DHT22;26570;50.962;5.340;2023-11-19T09:56:50;13.50;99.90
40848;DHT22;26570;50.962;5.340;2023-11-19T09:59:37;13.70;99.90
40848;DHT22;26570;50.962;5.340;2023-11-19T10:02:54;13.60;99.90
40848;DHT22;26570;50.962;5.340;2023-11-19T10:05:42;13.70;99.90
40848;DHT22;26570;50.962;5.340;2023-11-19T10:08:28;13.70;99.90
40848;DHT22;26570;50.962;5.340;2023-11-19T10:11:16;13.90;99.90
40848;DHT22;26570;50.962;5.340;2023-11-19T10:14:03;14.10;99.90
40848;DHT22;26570;50.962;5.340;2023-11-19T10:17:13;14.10;99.90
40848;DHT22;26570;50.962;5.340;2023-11-19T10:20:00;14.20;99.90
40848;DHT22;26570;50.962;5.340;2023-11-19T10:22:56;14.40;99.90
40848;DHT22;26570;50.962;5.340;2023-11-19T10:25:48;14.40;99.90
40848;DHT22;26570;50.962;5.340;2023-11-19T10:28:41;14.30;99.90
40848;DHT22;26570;50.962;5.340;2023-11-19T10:31:29;14.40;99.90
40848;DHT22;26570;50.962;5.340;2023-11-19T10:34:41;14.40;99.90
40848;DHT22;26570;50.962;5.340;2023-11-19T10:37:31;14.30;99.90
40848;DHT22;26570;50.962;5.340;2023-11-19T10:40:17;14.40;99.90
40848;DHT22;26570;50.962;5.340;2023-11-19T10:43:03;14.50;99.90
40848;DHT22;26570;50.962;5.340;2023-11-19T10:45:52;14.60;99.90
40848;DHT22;26570;50.962;5.340;2023-11-19T10:48:39;14.60;99.90
40848;DHT22;26570;50.962;5.340;2023-11-19T10:51:25;14.60;99.90
40848;DHT22;26570;50.962;5.340;2023-11-19T10:54:12;14.70;99.90
40848;DHT22;26570;50.962;5.340;2023-11-19T10:57:02;14.70;99.90
40848;DHT22;26570;50.962;5.340;2023-11-19T10:59:57;14.70;99.90
40848;DHT22;26570;50.962;5.340;2023-11-19T11:02:48;14.60;99.90
40848;DHT22;26570;50.962;5.340;2023-11-19T11:05:37;14.70;99.90
40848;DHT22;26570;50.962;5.340;2023-11-19T11:08:24;14.80;99.90
40848;DHT22;26570;50.962;5.340;2023-11-19T11:11:36;14.70;99.90
40848;DHT22;26570;50.962;5.340;2023-11-19T11:14:47;14.80;99.90
40848;DHT22;26570;50.962;5.340;2023-11-19T11:17:38;14.50;99.90
40848;DHT22;26570;50.962;5.340;2023-11-19T11:21:14;14.70;99.90
40848;DHT22;26570;50.962;5.340;2023-11-19T11:34:08;14.30;99.90
40848;DHT22;26570;50.962;5.340;2023-11-19T11:37:37;14.50;99.90
40848;DHT22;26570;50.962;5.340;2023-11-19T11:41:22;14.20;99.90
40848;DHT22;26570;50.962;5.340;2023-11-19T11:44:08;14.20;99.90
40848;DHT22;26570;50.962;5.340;2023-11-19T11:46:57;14.10;99.90
40848;DHT22;26570;50.962;5.340;2023-11-19T11:49:47;14.10;99.90
40848;DHT22;26570;50.962;5.340;2023-11-19T11:58:36;14.30;99.90
40848;DHT22;26570;50.962;5.340;2023-11-19T12:01:26;14.10;99.90
40848;DHT22;26570;50.962;5.340;2023-11-19T12:04:14;14.20;99.90
40848;DHT22;26570;50.962;5.340;2023-11-19T12:07:15;14.30;99.90
40848;DHT22;26570;50.962;5.340;2023-11-19T12:10:09;14.10;99.90
40848;DHT22;26570;50.962;5.340;2023-11-19T12:13:01;14.10;99.90
40848;DHT22;26570;50.962;5.340;2023-11-19T12:16:07;14.10;99.90
40848;DHT22;26570;50.962;5.340;2023-11-19T12:18:53;14.30;99.90
40848;DHT22;26570;50.962;5.340;2023-11-19T12:22:10;14.40;99.90
40848;DHT22;26570;50.962;5.340;2023-11-19T12:24:57;14.40;99.90
40848;DHT22;26570;50.962;5.340;2023-11-19T12:27:51;14.30;99.90
40848;DHT22;26570;50.962;5.340;2023-11-19T12:31:12;14.20;99.90
40848;DHT22;26570;50.962;5.340;2023-11-19T12:34:07;14.40;99.90
40848;DHT22;26570;50.962;5.340;2023-11-19T12:36:58;14.50;99.90
40848;DHT22;26570;50.962;5.340;2023-11-19T12:39:46;14.60;99.90
40848;DHT22;26570;50.962;5.340;2023-11-19T12:43:00;14.60;99.90
40848;DHT22;26570;50.962;5.340;2023-11-19T12:45:49;14.80;99.90
40848;DHT22;26570;50.962;5.340;2023-11-19T12:48:35;14.90;99.90
40848;DHT22;26570;50.962;5.340;2023-11-19T12:51:21;14.60;99.90
40848;DHT22;26570;50.962;5.340;2023-11-19T12:54:08;14.70;99.90
40848;DHT22;26570;50.962;5.340;2023-11-19T12:56:58;14.60;99.90
40848;DHT22;26570;50.962;5.340;2023-11-19T13:00:06;14.50;99.90
40848;DHT22;26570;50.962;5.340;2023-11-19T13:02:58;14.50;99.90
40848;DHT22;26570;50.962;5.340;2023-11-19T13:05:45;14.70;99.90
40848;DHT22;26570;50.962;5.340;2023-11-19T13:08:45;14.60;99.90
40848;DHT22;26570;50.962;5.340;2023-11-19T13:11:35;14.40;99.90
40848;DHT22;26570;50.962;5.340;2023-11-19T13:17:45;14.40;99.90
40848;DHT22;26570;50.962;5.340;2023-11-19T13:20:32;14.20;99.90
40848;DHT22;26570;50.962;5.340;2023-11-19T13:23:44;14.10;99.90
40848;DHT22;26570;50.962;5.340;2023-11-19T13:26:36;14.00;99.90
40848;DHT22;26570;50.962;5.340;2023-11-19T13:29:23;13.70;99.90
40848;DHT22;26570;50.962;5.340;2023-11-19T13:32:10;13.80;99.90
40848;DHT22;26570;50.962;5.340;2023-11-19T13:35:02;13.90;99.90
40848;DHT22;26570;50.962;5.340;2023-11-19T13:37:54;14.10;99.90
40848;DHT22;26570;50.962;5.340;2023-11-19T13:40:43;14.10;99.90
40848;DHT22;26570;50.962;5.340;2023-11-19T13:43:30;14.20;99.90
40848;DHT22;26570;50.962;5.340;2023-11-19T13:46:38;14.40;99.90
40848;DHT22;26570;50.962;5.340;2023-11-19T13:49:28;14.20;99.90
40848;DHT22;26570;50.962;5.340;2023-11-19T13:52:23;14.10;99.90
40848;DHT22;26570;50.962;5.340;2023-11-19T13:55:10;14.00;99.90
40848;DHT22;26570;50.962;5.340;2023-11-19T14:00:54;14.00;99.90
40848;DHT22;26570;50.962;5.340;2023-11-19T14:03:42;14.00;99.90
40848;DHT22;26570;50.962;5.340;2023-11-19T14:06:32;14.10;99.90
40848;DHT22;26570;50.962;5.340;2023-11-19T14:09:22;14.10;99.90
40848;DHT22;26570;50.962;5.340;2023-11-19T14:12:14;14.00;99.90
40848;DHT22;26570;50.962;5.340;2023-11-19T14:15:12;13.90;99.90
40848;DHT22;26570;50.962;5.340;2023-11-19T14:17:59;13.80;99.90
40848;DHT22;26570;50.962;5.340;2023-11-19T14:20:49;13.90;99.90
40848;DHT22;26570;50.962;5.340;2023-11-19T14:23:39;13.50;99.90
40848;DHT22;26570;50.962;5.340;2023-11-19T14:26:28;13.70;99.90
40848;DHT22;26570;50.962;5.340;2023-11-19T14:29:18;13.50;99.90
40848;DHT22;26570;50.962;5.340;2023-11-19T14:32:27;13.50;99.90
40848;DHT22;26570;50.962;5.340;2023-11-19T14:35:22;13.90;99.90
40848;DHT22;26570;50.962;5.340;2023-11-19T14:38:13;13.70;99.90
40848;DHT22;26570;50.962;5.340;2023-11-19T14:41:27;13.70;99.90
40848;DHT22;26570;50.962;5.340;2023-11-19T14:44:14;13.60;99.90
40848;DHT22;26570;50.962;5.340;2023-11-19T14:47:08;13.70;99.90
40848;DHT22;26570;50.962;5.340;2023-11-19T14:49:57;13.60;99.90
40848;DHT22;26570;50.962;5.340;2023-11-19T14:52:43;13.50;99.90
40848;DHT22;26570;50.962;5.340;2023-11-19T14:55:33;13.50;99.90
40848;DHT22;26570;50.962;5.340;2023-11-19T14:58:27;13.60;99.90
40848;DHT22;26570;50.962;5.340;2023-11-19T15:01:20;13.60;99.90
40848;DHT22;26570;50.962;5.340;2023-11-19T15:04:07;13.70;99.90
40848;DHT22;26570;50.962;5.340;2023-11-19T15:06:58;13.60;99.90
40848;DHT22;26570;50.962;5.340;2023-11-19T15:09:44;13.60;99.90
40848;DHT22;26570;50.962;5.340;2023-11-19T15:12:31;13.60;99.90
40848;DHT22;26570;50.962;5.340;2023-11-19T15:15:18;13.70;99.90
40848;DHT22;26570;50.962;5.340;2023-11-19T15:18:05;13.60;99.90
40848;DHT22;26570;50.962;5.340;2023-11-19T15:20:52;13.60;99.90
40848;DHT22;26570;50.962;5.340;2023-11-19T15:23:42;13.50;99.90
40848;DHT22;26570;50.962;5.340;2023-11-19T15:26:29;13.30;99.90
40848;DHT22;26570;50.962;5.340;2023-11-19T15:29:38;13.40;99.90
40848;DHT22;26570;50.962;5.340;2023-11-19T15:32:27;13.50;99.90
40848;DHT22;26570;50.962;5.340;2023-11-19T15:35:17;13.50;99.90
40848;DHT22;26570;50.962;5.340;2023-11-19T15:38:26;13.50;99.90
40848;DHT22;26570;50.962;5.340;2023-11-19T15:41:13;13.50;99.90
40848;DHT22;26570;50.962;5.340;2023-11-19T15:44:00;13.40;99.90
40848;DHT22;26570;50.962;5.340;2023-11-19T15:47:11;13.50;99.90
40848;DHT22;26570;50.962;5.340;2023-11-19T15:50:00;13.60;99.90
40848;DHT22;26570;50.962;5.340;2023-11-19T15:52:47;13.60;99.90
40848;DHT22;26570;50.962;5.340;2023-11-19T15:55:34;13.60;99.90
40848;DHT22;26570;50.962;5.340;2023-11-19T15:58:21;13.40;99.90
40848;DHT22;26570;50.962;5.340;2023-11-19T16:01:25;13.30;99.90
40848;DHT22;26570;50.962;5.340;2023-11-19T16:04:13;13.40;99.90
40848;DHT22;26570;50.962;5.340;2023-11-19T16:07:00;13.30;99.90
40848;DHT22;26570;50.962;5.340;2023-11-19T16:09:47;13.50;99.90
40848;DHT22;26570;50.962;5.340;2023-11-19T16:12:33;13.50;99.90
40848;DHT22;26570;50.962;5.340;2023-11-19T16:15:23;13.60;99.90
40848;DHT22;26570;50.962;5.340;2023-11-19T16:18:10;13.60;99.90
40848;DHT22;26570;50.962;5.340;2023-11-19T16:20:59;13.60;99.90
40848;DHT22;26570;50.962;5.340;2023-11-19T16:23:46;13.60;99.90
40848;DHT22;26570;50.962;5.340;2023-11-19T16:26:32;13.60;99.90
40848;DHT22;26570;50.962;5.340;2023-11-19T16:29:21;13.60;99.90
40848;DHT22;26570;50.962;5.340;2023-11-19T16:32:11;13.60;99.90
40848;DHT22;26570;50.962;5.340;2023-11-19T16:34:58;13.40;99.90
40848;DHT22;26570;50.962;5.340;2023-11-19T16:37:46;13.50;99.90
40848;DHT22;26570;50.962;5.340;2023-11-19T16:40:33;13.40;99.90
40848;DHT22;26570;50.962;5.340;2023-11-19T16:43:24;13.40;99.90
40848;DHT22;26570;50.962;5.340;2023-11-19T16:46:13;13.50;99.90
40848;DHT22;26570;50.962;5.340;2023-11-19T16:49:10;13.60;99.90
40848;DHT22;26570;50.962;5.340;2023-11-19T16:51:57;13.40;99.90
40848;DHT22;26570;50.962;5.340;2023-11-19T16:54:43;13.50;99.90
40848;DHT22;26570;50.962;5.340;2023-11-19T16:57:29;13.40;99.90
40848;DHT22;26570;50.962;5.340;2023-11-19T17:00:38;13.50;99.90
40848;DHT22;26570;50.962;5.340;2023-11-19T17:03:24;13.20;99.90
40848;DHT22;26570;50.962;5.340;2023-11-19T17:06:10;13.70;99.90
40848;DHT22;26570;50.962;5.340;2023-11-19T17:08:57;13.30;99.90
40848;DHT22;26570;50.962;5.340;2023-11-19T17:12:06;13.20;99.90
40848;DHT22;26570;50.962;5.340;2023-11-19T17:14:54;13.20;99.90
40848;DHT22;26570;50.962;5.340;2023-11-19T17:17:49;13.20;99.90
40848;DHT22;26570;50.962;5.340;2023-11-19T17:20:35;13.10;99.90
40848;DHT22;26570;50.962;5.340;2023-11-19T17:23:25;13.10;99.90
40848;DHT22;26570;50.962;5.340;2023-11-19T17:26:14;12.90;99.90
40848;DHT22;26570;50.962;5.340;2023-11-19T17:29:00;12.80;99.90
40848;DHT22;26570;50.962;5.340;2023-11-19T17:31:45;12.80;99.90
40848;DHT22;26570;50.962;5.340;2023-11-19T17:34:31;12.80;99.90
40848;DHT22;26570;50.962;5.340;2023-11-19T17:37:19;12.90;99.90
40848;DHT22;26570;50.962;5.340;2023-11-19T17:40:06;12.80;99.90
40848;DHT22;26570;50.962;5.340;2023-11-19T17:42:53;12.90;99.90
40848;DHT22;26570;50.962;5.340;2023-11-19T17:45:40;12.80;99.90
40848;DHT22;26570;50.962;5.340;2023-11-19T17:48:26;12.80;99.90
40848;DHT22;26570;50.962;5.340;2023-11-19T17:51:12;12.60;99.90
40848;DHT22;26570;50.962;5.340;2023-11-19T17:54:02;12.50;99.90
40848;DHT22;26570;50.962;5.340;2023-11-19T17:56:53;12.50;99.90
40848;DHT22;26570;50.962;5.340;2023-11-19T17:59:40;12.40;99.90
40848;DHT22;26570;50.962;5.340;2023-11-19T18:02:57;12.40;99.90
40848;DHT22;26570;50.962;5.340;2023-11-19T18:05:46;12.50;99.90
40848;DHT22;26570;50.962;5.340;2023-11-19T18:08:39;12.50;99.90
40848;DHT22;26570;50.962;5.340;2023-11-19T18:11:48;12.50;99.90
40848;DHT22;26570;50.962;5.340;2023-11-19T18:14:40;12.60;99.90
40848;DHT22;26570;50.962;5.340;2023-11-19T18:17:32;12.50;99.90
40848;DHT22;26570;50.962;5.340;2023-11-19T18:20:18;12.60;99.90
40848;DHT22;26570;50.962;5.340;2023-11-19T18:23:04;12.50;99.90
40848;DHT22;26570;50.962;5.340;2023-11-19T18:25:50;12.60;99.90
40848;DHT22;26570;50.962;5.340;2023-11-19T18:28:35;12.60;99.90
40848;DHT22;26570;50.962;5.340;2023-11-19T18:31:21;12.60;99.90
40848;DHT22;26570;50.962;5.340;2023-11-19T18:34:06;12.60;99.90
40848;DHT22;26570;50.962;5.340;2023-11-19T18:36:53;12.50;99.90
40848;DHT22;26570;50.962;5.340;2023-11-19T18:39:45;12.50;99.90
40848;DHT22;26570;50.962;5.340;2023-11-19T18:42:31;12.50;99.90
40848;DHT22;26570;50.962;5.340;2023-11-19T18:45:16;12.50;99.90
40848;DHT22;26570;50.962;5.340;2023-11-19T18:48:04;12.50;99.90
40848;DHT22;26570;50.962;5.340;2023-11-19T18:50:57;12.60;99.90
40848;DHT22;26570;50.962;5.340;2023-11-19T18:54:09;12.50;99.90
40848;DHT22;26570;50.962;5.340;2023-11-19T18:56:56;12.40;99.90
40848;DHT22;26570;50.962;5.340;2023-11-19T18:59:44;12.30;99.90
40848;DHT22;26570;50.962;5.340;2023-11-19T19:02:41;12.20;99.90
40848;DHT22;26570;50.962;5.340;2023-11-19T19:05:32;12.30;99.90
40848;DHT22;26570;50.962;5.340;2023-11-19T19:08:19;12.20;99.90
40848;DHT22;26570;50.962;5.340;2023-11-19T19:11:08;12.20;99.90
40848;DHT22;26570;50.962;5.340;2023-11-19T19:13:55;12.20;99.90
40848;DHT22;26570;50.962;5.340;2023-11-19T19:16:42;12.20;99.90
40848;DHT22;26570;50.962;5.340;2023-11-19T19:19:30;12.10;99.90
40848;DHT22;26570;50.962;5.340;2023-11-19T19:22:16;12.10;99.90
40848;DHT22;26570;50.962;5.340;2023-11-19T19:25:05;12.10;99.90
40848;DHT22;26570;50.962;5.340;2023-11-19T19:27:52;12.30;99.90
40848;DHT22;26570;50.962;5.340;2023-11-19T19:30:39;12.20;99.90
40848;DHT22;26570;50.962;5.340;2023-11-19T19:33:27;12.30;99.90
40848;DHT22;26570;50.962;5.340;2023-11-19T19:36:14;12.30;99.90
40848;DHT22;26570;50.962;5.340;2023-11-19T19:39:02;12.20;99.90
40848;DHT22;26570;50.962;5.340;2023-11-19T19:42:21;12.20;99.90
40848;DHT22;26570;50.962;5.340;2023-11-19T19:45:08;12.20;99.90
40848;DHT22;26570;50.962;5.340;2023-11-19T19:47:55;12.30;99.90
40848;DHT22;26570;50.962;5.340;2023-11-19T19:50:42;12.20;99.90
40848;DHT22;26570;50.962;5.340;2023-11-19T19:53:33;12.20;99.90
40848;DHT22;26570;50.962;5.340;2023-11-19T19:56:20;12.10;99.90
40848;DHT22;26570;50.962;5.340;2023-11-19T19:59:32;12.20;99.90
40848;DHT22;26570;50.962;5.340;2023-11-19T20:02:21;12.10;99.90
40848;DHT22;26570;50.962;5.340;2023-11-19T20:05:08;12.00;99.90
40848;DHT22;26570;50.962;5.340;2023-11-19T20:07:57;12.10;99.90
40848;DHT22;26570;50.962;5.340;2023-11-19T20:10:44;12.20;99.90
40848;DHT22;26570;50.962;5.340;2023-11-19T20:14:01;12.10;99.90
40848;DHT22;26570;50.962;5.340;2023-11-19T20:17:14;12.30;99.90
40848;DHT22;26570;50.962;5.340;2023-11-19T20:20:01;12.20;99.90
40848;DHT22;26570;50.962;5.340;2023-11-19T20:22:49;12.30;99.90
40848;DHT22;26570;50.962;5.340;2023-11-19T20:25:36;12.30;99.90
40848;DHT22;26570;50.962;5.340;2023-11-19T20:28:24;12.00;99.90
40848;DHT22;26570;50.962;5.340;2023-11-19T20:31:11;12.10;99.90
40848;DHT22;26570;50.962;5.340;2023-11-19T20:34:01;12.20;99.90
40848;DHT22;26570;50.962;5.340;2023-11-19T20:37:11;12.20;99.90
40848;DHT22;26570;50.962;5.340;2023-11-19T20:40:27;12.00;99.90
40848;DHT22;26570;50.962;5.340;2023-11-19T20:43:15;12.10;99.90
40848;DHT22;26570;50.962;5.340;2023-11-19T20:46:24;12.10;99.90
40848;DHT22;26570;50.962;5.340;2023-11-19T20:49:15;12.00;99.90
40848;DHT22;26570;50.962;5.340;2023-11-19T20:52:05;11.90;99.90
40848;DHT22;26570;50.962;5.340;2023-11-19T20:54:51;11.90;99.90
40848;DHT22;26570;50.962;5.340;2023-11-19T20:57:40;11.90;99.90
40848;DHT22;26570;50.962;5.340;2023-11-19T21:00:27;12.00;99.90
40848;DHT22;26570;50.962;5.340;2023-11-19T21:03:14;12.00;99.90
40848;DHT22;26570;50.962;5.340;2023-11-19T21:06:03;11.80;99.90
40848;DHT22;26570;50.962;5.340;2023-11-19T21:09:15;11.90;99.90
40848;DHT22;26570;50.962;5.340;2023-11-19T21:12:02;12.00;99.90
40848;DHT22;26570;50.962;5.340;2023-11-19T21:14:51;12.20;99.90
40848;DHT22;26570;50.962;5.340;2023-11-19T21:17:37;12.10;99.90
40848;DHT22;26570;50.962;5.340;2023-11-19T21:20:24;12.20;99.90
40848;DHT22;26570;50.962;5.340;2023-11-19T21:23:14;12.10;99.90
40848;DHT22;26570;50.962;5.340;2023-11-19T21:26:02;12.30;99.90
40848;DHT22;26570;50.962;5.340;2023-11-19T21:28:49;12.30;99.90
40848;DHT22;26570;50.962;5.340;2023-11-19T21:31:46;12.00;99.90
40848;DHT22;26570;50.962;5.340;2023-11-19T21:57:21;12.00;99.90
40848;DHT22;26570;50.962;5.340;2023-11-19T22:00:16;12.00;99.90
40848;DHT22;26570;50.962;5.340;2023-11-19T22:03:34;12.10;99.90
40848;DHT22;26570;50.962;5.340;2023-11-19T22:06:30;12.00;99.90
40848;DHT22;26570;50.962;5.340;2023-11-19T22:09:21;12.00;99.90
40848;DHT22;26570;50.962;5.340;2023-11-19T22:12:17;12.00;99.90
40848;DHT22;26570;50.962;5.340;2023-11-19T22:15:13;12.00;99.90
40848;DHT22;26570;50.962;5.340;2023-11-19T23:20:32;12.30;99.90
40848;DHT22;26570;50.962;5.340;2023-11-19T23:27:14;12.10;99.90
40848;DHT22;26570;50.962;5.340;2023-11-19T23:30:07;12.00;99.90
40848;DHT22;26570;50.962;5.340;2023-11-19T23:32:58;11.90;99.90
40848;DHT22;26570;50.962;5.340;2023-11-19T23:39:08;12.20;99.90
40848;DHT22;26570;50.962;5.340;2023-11-19T23:41:57;11.90;99.90
40848;DHT22;26570;50.962;5.340;2023-11-19T23:44:52;12.10;99.90
40848;DHT22;26570;50.962;5.340;2023-11-19T23:47:48;12.20;99.90
40848;DHT22;26570;50.962;5.340;2023-11-19T23:50:45;11.90;99.90
40848;DHT22;26570;50.962;5.340;2023-11-19T23:53:37;12.30;99.90
40848;DHT22;26570;50.962;5.340;2023-11-19T23:56:25;12.40;99.90
